Time;durP1;ratioP1;P1;durP2;ratioP2;P2;SDS_P1;SDS_P2;PMS_P1;PMS_P2;Temp;Humidity;BMP_temperature;BMP_pressure;BME280_temperature;BME280_humidity;BME280_pressure;Samples;Min_cycle;Max_cycle;Signal;HPM_P1;HPM_P2
2023/10/23 00:00:52;;;;;;;5.90;3.05;;;;;;;13.62;72.93;101347.63;5031692;28;20054;-48
2023/10/23 00:03:17;;;;;;;5.32;3.00;;;;;;;13.53;72.56;101341.44;5032215;28;20112;-47
2023/10/23 00:05:43;;;;;;;5.50;3.20;;;;;;;13.41;72.73;101342.22;5032233;28;20748;-48
2023/10/23 00:08:08;;;;;;;4.93;3.20;;;;;;;13.32;72.70;101352.59;5032169;28;20065;-48
2023/10/23 00:10:33;;;;;;;4.63;3.13;;;;;;;13.23;72.72;101360.38;5032753;28;20120;-48
2023/10/23 00:12:59;;;;;;;5.30;3.75;;;;;;;13.13;73.13;101354.13;5031505;28;20049;-48
2023/10/23 00:15:24;;;;;;;6.65;3.92;;;;;;;13.05;73.32;101355.78;5031824;28;20033;-48
2023/10/23 00:17:49;;;;;;;7.70;3.83;;;;;;;13.00;73.81;101352.22;5031498;28;20112;-49
2023/10/23 00:20:15;;;;;;;7.97;3.25;;;;;;;12.96;73.54;101356.56;5031719;28;20070;-46
2023/10/23 00:22:40;;;;;;;6.15;3.30;;;;;;;12.94;72.94;101355.63;5031742;28;20033;-47
2023/10/23 00:25:06;;;;;;;5.82;3.38;;;;;;;12.88;72.95;101355.56;5031067;28;20064;-52
2023/10/23 00:27:31;;;;;;;7.07;3.60;;;;;;;12.82;73.09;101367.69;5031926;28;20091;-49
2023/10/23 00:29:56;;;;;;;6.03;3.60;;;;;;;12.75;73.06;101358.91;5032567;28;20029;-46
2023/10/23 00:32:22;;;;;;;5.88;3.25;;;;;;;12.72;73.10;101358.00;5033750;28;20483;-44
2023/10/23 00:34:47;;;;;;;7.22;3.30;;;;;;;12.71;73.12;101358.84;5030066;28;20037;-45
2023/10/23 00:37:12;;;;;;;6.07;3.17;;;;;;;12.67;73.07;101351.84;5033135;28;20033;-46
2023/10/23 00:39:38;;;;;;;5.93;3.33;;;;;;;12.60;73.03;101350.88;5033485;28;20042;-49
2023/10/23 00:42:03;;;;;;;6.72;3.40;;;;;;;12.55;72.90;101347.34;5031139;28;20040;-48
2023/10/23 00:44:30;;;;;;;5.38;3.42;;;;;;;12.49;73.18;101360.31;5031631;28;20084;-49
2023/10/23 00:46:55;;;;;;;5.63;3.58;;;;;;;12.46;72.76;101355.91;5030673;28;20095;-49
2023/10/23 00:49:21;;;;;;;6.82;3.50;;;;;;;12.42;73.06;101358.47;5031722;28;20033;-51
2023/10/23 00:51:46;;;;;;;8.25;3.70;;;;;;;12.40;72.98;101354.97;5031052;28;20117;-48
2023/10/23 00:54:14;;;;;;;5.97;3.58;;;;;;;12.34;73.40;101353.16;5031936;28;20488;-49
2023/10/23 00:56:39;;;;;;;9.82;3.88;;;;;;;12.29;73.76;101365.28;5031974;28;20040;-53
2023/10/23 00:59:05;;;;;;;6.00;3.60;;;;;;;12.20;75.04;101363.41;5031612;28;20033;-52
2023/10/23 01:01:32;;;;;;;6.75;3.78;;;;;;;12.28;73.98;101367.88;5032310;28;20686;-48
2023/10/23 01:03:59;;;;;;;7.05;3.70;;;;;;;12.30;73.83;101376.63;5031326;28;20129;-49
2023/10/23 01:06:25;;;;;;;5.32;3.50;;;;;;;12.30;73.92;101376.63;5032638;28;20030;-49
2023/10/23 01:08:51;;;;;;;5.43;3.40;;;;;;;12.31;73.64;101383.59;5031935;28;20444;-45
2023/10/23 01:11:16;;;;;;;6.47;3.53;;;;;;;12.29;74.13;101382.69;5032817;28;20080;-47
2023/10/23 01:13:41;;;;;;;6.43;3.45;;;;;;;12.26;73.85;101383.50;5033041;28;20038;-46
2023/10/23 01:16:07;;;;;;;6.75;3.60;;;;;;;12.25;73.70;101381.78;5032715;28;20025;-45
2023/10/23 01:18:32;;;;;;;7.15;3.45;;;;;;;12.24;73.74;101386.97;5032597;28;20041;-50
2023/10/23 01:20:58;;;;;;;6.10;3.53;;;;;;;12.21;73.60;101393.03;5030355;28;20037;-45
2023/10/23 01:23:28;;;;;;;6.20;3.72;;;;;;;12.22;73.54;101393.91;5030539;28;20112;-46
2023/10/23 01:25:54;;;;;;;5.30;3.28;;;;;;;12.25;73.85;101396.59;5030489;28;20514;-46
2023/10/23 01:28:19;;;;;;;7.18;3.58;;;;;;;12.29;73.75;101393.16;5033012;28;20037;-49
2023/10/23 01:30:45;;;;;;;7.53;3.72;;;;;;;12.33;73.89;101392.31;5034153;28;20057;-52
2023/10/23 01:33:10;;;;;;;7.63;3.78;;;;;;;12.34;74.01;101384.50;5032257;28;20025;-46
2023/10/23 01:35:36;;;;;;;7.32;3.85;;;;;;;12.38;73.70;101382.84;5033172;28;20029;-48
2023/10/23 01:38:01;;;;;;;7.20;4.15;;;;;;;12.39;73.92;101380.22;5035214;28;20103;-48
2023/10/23 01:40:27;;;;;;;6.97;4.03;;;;;;;12.39;73.90;101381.97;5034840;28;20089;-46
2023/10/23 01:42:52;;;;;;;8.13;3.85;;;;;;;12.34;73.76;101376.66;5031906;28;20033;-46
2023/10/23 01:45:18;;;;;;;7.00;4.10;;;;;;;12.32;73.25;101377.53;5030466;28;20025;-47
2023/10/23 01:47:44;;;;;;;8.10;4.32;;;;;;;12.29;72.95;101372.25;5030368;28;20037;-51
2023/10/23 01:50:10;;;;;;;7.53;4.28;;;;;;;12.22;73.06;101366.03;5028571;28;20470;-50
2023/10/23 01:52:35;;;;;;;7.65;4.55;;;;;;;12.17;73.23;101373.81;5030184;28;20040;-47
2023/10/23 01:55:00;;;;;;;8.23;4.55;;;;;;;12.11;73.61;101373.72;5029726;28;20038;-46
2023/10/23 01:57:26;;;;;;;10.40;4.82;;;;;;;12.03;73.83;101370.13;5030058;28;20052;-46
2023/10/23 01:59:52;;;;;;;7.88;4.65;;;;;;;12.04;73.86;101373.59;5028187;28;20039;-48
2023/10/23 02:02:17;;;;;;;6.80;4.22;;;;;;;12.04;73.36;101374.50;5030080;28;20511;-50
2023/10/23 02:04:43;;;;;;;9.35;4.40;;;;;;;11.98;73.55;101381.34;5028579;28;20037;-46
2023/10/23 02:07:08;;;;;;;7.25;4.40;;;;;;;11.78;75.34;101379.28;5029380;28;20079;-49
2023/10/23 02:09:33;;;;;;;8.18;4.28;;;;;;;11.92;73.75;101381.25;5030039;28;20025;-46
2023/10/23 02:12:00;;;;;;;9.57;4.50;;;;;;;11.90;73.59;101386.44;5028894;28;20400;-47
2023/10/23 02:14:26;;;;;;;8.20;5.00;;;;;;;11.79;74.70;101390.63;5029629;28;20038;-44
2023/10/23 02:16:51;;;;;;;5.90;4.13;;;;;;;11.82;73.58;101395.03;5029590;28;20048;-47
2023/10/23 02:19:17;;;;;;;8.07;4.90;;;;;;;11.82;74.08;101395.91;5029780;28;20037;-48
2023/10/23 02:21:49;;;;;;;7.75;4.75;;;;;;;11.79;74.03;101385.41;5030175;28;20026;-44
2023/10/23 02:24:15;;;;;;;7.57;4.40;;;;;;;11.82;73.31;101392.44;5029771;28;20059;-45
2023/10/23 02:26:40;;;;;;;7.55;4.70;;;;;;;11.76;73.51;101391.47;5029611;28;20036;-47
2023/10/23 02:29:05;;;;;;;11.07;4.40;;;;;;;11.74;73.29;101394.91;5029284;28;20029;-49
2023/10/23 02:31:31;;;;;;;7.60;4.60;;;;;;;11.70;73.59;101395.69;5030025;28;20381;-49
2023/10/23 02:33:56;;;;;;;8.38;4.63;;;;;;;11.70;73.45;101399.19;5029519;28;20034;-44
2023/10/23 02:36:21;;;;;;;7.00;4.53;;;;;;;11.67;73.24;101403.44;5029933;28;20045;-49
2023/10/23 02:38:47;;;;;;;6.68;4.38;;;;;;;11.65;73.42;101397.31;5029578;28;20133;-47
2023/10/23 02:41:12;;;;;;;8.25;4.20;;;;;;;11.60;73.21;101394.63;5029372;28;20157;-46
2023/10/23 02:43:37;;;;;;;6.75;4.60;;;;;;;11.56;73.41;101394.56;5029536;28;20036;-45
2023/10/23 02:46:04;;;;;;;6.82;4.50;;;;;;;11.44;74.04;101399.56;5028939;28;20034;-46
2023/10/23 02:48:30;;;;;;;9.20;4.65;;;;;;;11.43;74.42;101400.41;5029355;28;20021;-46
2023/10/23 02:50:56;;;;;;;8.82;4.93;;;;;;;11.45;74.03;101396.97;5028856;28;20036;-46
2023/10/23 02:53:21;;;;;;;7.20;4.50;;;;;;;11.43;73.79;101403.00;5029569;28;20090;-45
2023/10/23 02:55:48;;;;;;;7.72;4.60;;;;;;;11.40;73.26;101409.06;5029040;28;20041;-47
2023/10/23 02:58:13;;;;;;;6.93;4.10;;;;;;;11.42;73.26;101398.63;5029334;28;20029;-47
2023/10/23 03:00:39;;;;;;;7.38;4.10;;;;;;;11.28;73.92;101394.03;5029152;28;20029;-49
2023/10/23 03:03:04;;;;;;;11.75;4.28;;;;;;;11.22;74.76;101395.69;5028689;28;20033;-45
2023/10/23 03:05:30;;;;;;;6.57;4.25;;;;;;;11.24;73.95;101400.06;5029265;28;20025;-48
2023/10/23 03:07:55;;;;;;;6.72;4.25;;;;;;;11.26;73.60;101397.47;5028859;28;20034;-47
2023/10/23 03:10:20;;;;;;;7.07;4.13;;;;;;;11.23;73.88;101402.63;5030493;28;20038;-48
2023/10/23 03:12:46;;;;;;;6.20;3.53;;;;;;;11.22;73.59;101406.97;5032601;28;20079;-48
2023/10/23 03:15:11;;;;;;;6.25;4.10;;;;;;;11.22;73.35;101419.16;5031411;28;20029;-48
2023/10/23 03:17:37;;;;;;;6.95;3.88;;;;;;;10.94;74.05;101420.31;5033034;28;20037;-46
2023/10/23 03:20:03;;;;;;;8.55;3.70;;;;;;;11.03;74.08;101417.94;5032203;28;20033;-48
2023/10/23 03:22:29;;;;;;;7.10;4.18;;;;;;;10.83;75.12;101424.44;5033158;28;20049;-47
2023/10/23 03:24:54;;;;;;;7.05;3.75;;;;;;;11.02;74.16;101423.97;5032002;28;20072;-47
2023/10/23 03:27:20;;;;;;;6.70;4.10;;;;;;;10.80;74.88;101422.63;5032855;28;20064;-49
2023/10/23 03:29:45;;;;;;;7.20;4.07;;;;;;;10.98;74.18;101420.41;5032760;28;20029;-45
2023/10/23 03:32:10;;;;;;;7.07;4.00;;;;;;;11.01;74.05;101417.00;5032319;28;20399;-46
2023/10/23 03:34:36;;;;;;;7.65;4.50;;;;;;;11.03;74.16;101417.03;5032290;28;20491;-48
2023/10/23 03:37:01;;;;;;;6.05;4.07;;;;;;;11.02;73.83;101416.16;5031709;28;20125;-48
2023/10/23 03:39:26;;;;;;;7.68;4.10;;;;;;;11.02;73.95;101410.06;5032104;28;20030;-50
2023/10/23 03:41:52;;;;;;;5.63;3.67;;;;;;;11.03;73.64;101411.81;5032135;28;20037;-48
2023/10/23 03:44:17;;;;;;;5.47;3.53;;;;;;;11.02;73.48;101413.56;5032605;28;20072;-46
2023/10/23 03:46:42;;;;;;;7.05;4.00;;;;;;;10.98;73.50;101429.97;5032456;28;20045;-46
2023/10/23 03:49:08;;;;;;;6.93;4.20;;;;;;;10.86;73.85;101425.38;5032153;28;20044;-46
2023/10/23 03:51:33;;;;;;;8.32;4.38;;;;;;;10.86;74.67;101421.88;5032338;28;20060;-47
2023/10/23 03:53:59;;;;;;;6.47;4.00;;;;;;;10.92;73.52;101425.50;5031579;28;20033;-45
2023/10/23 03:56:24;;;;;;;7.10;4.03;;;;;;;10.90;73.82;101423.72;5032397;28;20025;-45
2023/10/23 03:58:49;;;;;;;7.85;4.18;;;;;;;10.88;74.03;101426.31;5031934;28;20171;-46
2023/10/23 04:01:15;;;;;;;6.72;3.85;;;;;;;10.95;74.18;101427.31;5032129;28;20120;-44
2023/10/23 04:03:40;;;;;;;6.32;4.22;;;;;;;11.06;74.63;101422.31;5030963;28;20044;-45
2023/10/23 04:06:06;;;;;;;9.10;4.10;;;;;;;11.26;74.67;101431.41;5031452;28;20048;-51
2023/10/23 04:08:31;;;;;;;7.82;4.45;;;;;;;11.21;75.85;101420.00;5032581;28;20037;-47
2023/10/23 04:10:58;;;;;;;9.38;4.88;;;;;;;11.35;76.13;101423.75;5034622;28;20072;-46
2023/10/23 04:13:23;;;;;;;7.57;4.70;;;;;;;11.48;76.26;101427.47;5036159;28;20040;-48
2023/10/23 04:15:53;;;;;;;16.65;5.60;;;;;;;11.56;76.26;101421.53;5036076;28;20033;-48
2023/10/23 04:18:18;;;;;;;15.30;5.85;;;;;;;11.52;77.41;101421.47;5033824;28;20125;-47
2023/10/23 04:20:44;;;;;;;41.97;8.63;;;;;;;11.50;79.07;101417.94;5031699;28;20148;-48
2023/10/23 04:23:10;;;;;;;19.75;8.07;;;;;;;11.83;78.98;101417.69;5030571;28;20033;-47
2023/10/23 04:25:35;;;;;;;39.30;9.27;;;;;;;11.98;79.05;101428.38;5031993;28;20025;-47
2023/10/23 04:28:00;;;;;;;18.27;8.73;;;;;;;12.10;78.85;101415.53;5030993;28;20080;-49
2023/10/23 04:30:26;;;;;;;47.20;9.73;;;;;;;12.45;77.46;101422.16;5031908;28;20377;-46
2023/10/23 04:32:51;;;;;;;40.67;9.20;;;;;;;12.52;77.65;101416.16;5031378;28;20067;-45
2023/10/23 04:35:16;;;;;;;56.42;10.10;;;;;;;12.56;77.49;101424.94;5031069;28;20033;-45
2023/10/23 04:37:41;;;;;;;88.43;10.73;;;;;;;12.52;78.08;101425.72;5032502;28;20029;-44
2023/10/23 04:40:07;;;;;;;58.20;10.63;;;;;;;12.61;77.86;101420.66;5032444;28;20045;-47
2023/10/23 04:42:33;;;;;;;23.52;8.93;;;;;;;12.78;77.28;101424.38;5033284;28;20060;-48
2023/10/23 04:44:58;;;;;;;39.28;9.38;;;;;;;12.78;77.30;101428.72;5033140;28;20033;-46
2023/10/23 04:47:23;;;;;;;14.20;8.68;;;;;;;12.86;77.17;101435.81;5031558;28;20121;-48
2023/10/23 04:49:49;;;;;;;19.67;9.13;;;;;;;12.87;77.36;101431.44;5030895;28;20029;-50
2023/10/23 04:52:14;;;;;;;22.90;8.85;;;;;;;12.94;77.07;101435.91;5031132;28;20057;-44
2023/10/23 04:54:39;;;;;;;16.13;9.07;;;;;;;12.97;76.91;101425.47;5031075;28;20034;-52
2023/10/23 04:57:05;;;;;;;21.05;9.15;;;;;;;12.92;77.22;101429.78;5030371;28;25638;-47
2023/10/23 04:59:34;;;;;;;19.50;8.88;;;;;;;12.99;77.01;101427.22;5031185;28;20116;-49
2023/10/23 05:01:59;;;;;;;20.25;8.80;;;;;;;13.00;76.86;101415.91;5030767;28;20116;-47
2023/10/23 05:04:27;;;;;;;12.90;8.65;;;;;;;13.06;76.83;101425.56;5030934;28;20186;-48
2023/10/23 05:06:55;;;;;;;17.35;9.05;;;;;;;13.07;76.86;101429.06;5032052;28;20480;-46
2023/10/23 05:09:20;;;;;;;23.73;9.57;;;;;;;13.04;76.90;101423.81;5032883;28;20021;-46
2023/10/23 05:11:46;;;;;;;56.67;10.02;;;;;;;12.81;77.60;101427.00;5031661;28;20415;-46
2023/10/23 05:14:12;;;;;;;16.67;8.77;;;;;;;12.97;76.99;101423.75;5031606;28;20487;-45
2023/10/23 05:16:37;;;;;;;14.90;8.90;;;;;;;13.02;76.99;101427.28;5031642;28;20506;-48
2023/10/23 05:19:03;;;;;;;14.80;8.85;;;;;;;13.08;76.85;101428.22;5031289;28;20041;-48
2023/10/23 05:21:28;;;;;;;15.00;8.90;;;;;;;13.12;76.72;101417.81;5032336;28;20061;-48
2023/10/23 05:23:53;;;;;;;15.07;9.20;;;;;;;13.00;76.78;101425.50;5031950;28;20026;-48
2023/10/23 05:26:20;;;;;;;53.72;9.43;;;;;;;13.10;76.80;101426.50;5032700;28;20037;-51
2023/10/23 05:28:45;;;;;;;28.98;9.32;;;;;;;13.10;76.43;101418.66;5032483;28;20026;-50
2023/10/23 05:31:10;;;;;;;45.58;11.50;;;;;;;13.06;76.86;101419.47;5030626;28;20120;-46
2023/10/23 05:33:36;;;;;;;84.40;10.52;;;;;;;13.01;76.85;101419.41;5029515;28;20055;-49
2023/10/23 05:36:06;;;;;;;18.52;9.02;;;;;;;12.99;77.34;101414.16;5030039;28;20037;-48
2023/10/23 05:38:32;;;;;;;14.95;8.65;;;;;;;13.08;76.88;101425.59;5030415;28;20511;-52
2023/10/23 05:40:58;;;;;;;19.90;8.75;;;;;;;13.10;76.91;101431.75;5029732;28;20048;-52
2023/10/23 05:43:26;;;;;;;15.63;9.07;;;;;;;13.16;76.81;101427.50;5030278;28;20032;-49
2023/10/23 05:45:51;;;;;;;35.85;9.70;;;;;;;13.10;76.91;101418.66;5030084;28;20030;-48
2023/10/23 05:48:16;;;;;;;16.10;9.10;;;;;;;13.15;76.93;101422.22;5030958;28;20021;-48
2023/10/23 05:50:42;;;;;;;17.77;9.68;;;;;;;13.21;76.83;101432.78;5031118;28;20506;-45
2023/10/23 05:53:07;;;;;;;49.72;9.73;;;;;;;13.14;76.76;101423.97;5029973;28;20109;-45
2023/10/23 05:55:35;;;;;;;39.92;10.20;;;;;;;13.17;76.80;101426.63;5030479;28;20111;-51
2023/10/23 05:58:01;;;;;;;28.70;9.77;;;;;;;13.16;77.13;101422.25;5029728;28;20041;-50
2023/10/23 06:00:27;;;;;;;32.50;9.85;;;;;;;13.08;77.47;101417.75;5030059;28;20060;-46
2023/10/23 06:02:52;;;;;;;18.98;9.68;;;;;;;13.11;77.27;101418.69;5028237;28;20120;-47
2023/10/23 06:05:18;;;;;;;28.42;10.40;;;;;;;13.27;76.76;101425.88;5029689;28;20116;-47
2023/10/23 06:07:43;;;;;;;26.48;10.10;;;;;;;13.26;76.94;101429.34;5029793;28;20029;-48
2023/10/23 06:10:09;;;;;;;22.40;10.00;;;;;;;13.28;77.03;101429.38;5029289;28;20084;-46
2023/10/23 06:12:34;;;;;;;18.95;10.45;;;;;;;13.36;76.89;101425.97;5029152;28;20140;-47
2023/10/23 06:14:59;;;;;;;35.03;10.77;;;;;;;13.34;77.03;101432.94;5029418;28;20053;-45
2023/10/23 06:17:25;;;;;;;47.72;11.10;;;;;;;13.33;76.92;101430.28;5029603;28;20057;-45
2023/10/23 06:19:51;;;;;;;36.58;11.20;;;;;;;13.37;77.28;101429.47;5029209;28;20049;-47
2023/10/23 06:22:16;;;;;;;21.80;10.30;;;;;;;13.43;76.98;101433.88;5028712;28;20411;-46
2023/10/23 06:24:41;;;;;;;118.35;12.05;;;;;;;13.41;77.21;101433.88;5029438;28;20103;-46
2023/10/23 06:27:06;;;;;;;20.85;10.73;;;;;;;13.40;77.57;101433.00;5027959;28;20129;-44
2023/10/23 06:29:32;;;;;;;28.35;10.85;;;;;;;13.49;77.00;101431.31;5029699;28;20038;-50
2023/10/23 06:31:57;;;;;;;28.48;11.48;;;;;;;13.55;77.32;101432.25;5028451;28;20518;-43
2023/10/23 06:34:22;;;;;;;36.28;11.35;;;;;;;13.60;77.49;101430.56;5029751;28;20033;-46
2023/10/23 06:36:48;;;;;;;27.08;11.25;;;;;;;13.61;77.49;101427.09;5029063;28;20032;-47
2023/10/23 06:39:13;;;;;;;23.23;11.32;;;;;;;13.70;77.57;101421.94;5029632;28;20030;-47
2023/10/23 06:41:38;;;;;;;38.53;11.60;;;;;;;13.61;78.06;101420.97;5029807;28;20042;-49
2023/10/23 06:44:04;;;;;;;30.52;12.38;;;;;;;13.75;77.81;101416.75;5029417;28;20083;-47
2023/10/23 06:46:29;;;;;;;30.60;11.77;;;;;;;13.81;77.78;101409.81;5032932;28;20048;-45
2023/10/23 06:48:55;;;;;;;23.90;11.95;;;;;;;13.81;77.74;101414.19;5033847;28;20026;-49
2023/10/23 06:51:20;;;;;;;32.92;11.90;;;;;;;13.60;79.22;101421.84;5033842;28;20037;-46
2023/10/23 06:53:45;;;;;;;49.65;13.00;;;;;;;13.47;80.29;101426.09;5033720;28;20125;-48
2023/10/23 06:56:11;;;;;;;25.83;12.43;;;;;;;13.86;78.70;101419.44;5033143;28;20035;-47
2023/10/23 06:58:36;;;;;;;31.27;12.15;;;;;;;14.01;78.37;101419.59;5033595;28;20068;-48
2023/10/23 07:01:08;;;;;;;37.33;12.45;;;;;;;13.93;78.84;101419.53;5033274;28;20064;-50
2023/10/23 07:03:34;;;;;;;29.27;13.23;;;;;;;14.06;78.69;101426.63;5034194;28;20092;-46
2023/10/23 07:06:04;;;;;;;44.58;13.82;;;;;;;13.91;78.83;101426.47;5033091;28;20067;-49
2023/10/23 07:08:29;;;;;;;50.20;13.55;;;;;;;13.92;79.42;101435.22;5033953;28;20109;-48
2023/10/23 07:10:55;;;;;;;55.15;13.52;;;;;;;13.74;80.52;101430.69;5033182;28;20061;-44
2023/10/23 07:13:20;;;;;;;49.13;13.60;;;;;;;13.65;80.91;101434.13;5033324;28;20041;-44
2023/10/23 07:15:45;;;;;;;49.45;14.55;;;;;;;14.06;79.52;101425.75;5033273;28;20033;-46
2023/10/23 07:18:10;;;;;;;48.20;14.10;;;;;;;14.07;80.13;101430.13;5033242;28;20053;-45
2023/10/23 07:20:36;;;;;;;58.03;14.50;;;;;;;13.96;80.51;101432.66;5033327;28;20053;-49
2023/10/23 07:23:01;;;;;;;49.90;14.98;;;;;;;14.26;80.00;101426.78;5032981;28;20041;-45
2023/10/23 07:25:26;;;;;;;48.15;15.05;;;;;;;14.41;78.68;101426.03;5033387;28;20501;-47
2023/10/23 07:27:52;;;;;;;73.00;15.38;;;;;;;14.40;79.45;101424.25;5022391;28;20099;-48
2023/10/23 07:30:17;;;;;;;53.92;15.75;;;;;;;14.52;79.08;101425.22;5012654;28;20100;-47
2023/10/23 07:32:42;;;;;;;44.08;16.00;;;;;;;14.52;79.49;101419.97;5030087;28;20052;-47
2023/10/23 07:35:08;;;;;;;47.63;16.60;;;;;;;14.62;78.44;101423.53;5032151;28;20034;-44
2023/10/23 07:37:34;;;;;;;47.35;17.15;;;;;;;14.81;78.47;101425.41;5033666;28;20029;-45
2023/10/23 07:40:05;;;;;;;41.47;16.08;;;;;;;14.84;77.76;101429.78;5033737;28;20037;-45
2023/10/23 07:42:31;;;;;;;59.05;16.98;;;;;;;14.50;79.48;101424.34;5022974;28;20659;-44
2023/10/23 07:44:57;;;;;;;55.95;16.83;;;;;;;14.89;78.00;101425.41;5015918;28;20026;-48
2023/10/23 07:47:22;;;;;;;57.95;16.85;;;;;;;14.96;78.18;101427.19;5032587;28;20079;-45
2023/10/23 07:49:48;;;;;;;46.72;16.35;;;;;;;14.87;78.74;101430.69;5018675;28;20026;-46
2023/10/23 07:52:13;;;;;;;44.35;16.35;;;;;;;14.94;78.49;101427.19;5014180;28;20040;-49
2023/10/23 07:54:38;;;;;;;47.22;17.30;;;;;;;14.94;78.79;101427.19;5020730;28;20042;-47
2023/10/23 07:57:04;;;;;;;45.58;17.10;;;;;;;14.76;79.33;101428.88;5034844;28;20175;-56
2023/10/23 07:59:29;;;;;;;49.75;17.15;;;;;;;14.70;79.22;101427.06;5053029;28;20262;-48
2023/10/23 08:01:56;;;;;;;46.53;16.20;;;;;;;14.75;79.46;101420.13;5053555;28;20037;-46
2023/10/23 08:04:21;;;;;;;51.65;16.60;;;;;;;14.88;78.98;101411.41;5044580;28;20064;-45
2023/10/23 08:06:47;;;;;;;37.38;15.70;;;;;;;14.91;78.35;101411.44;5033934;28;20065;-48
2023/10/23 08:09:12;;;;;;;38.88;15.50;;;;;;;14.83;79.15;101414.88;5031659;28;20119;-50
2023/10/23 08:11:38;;;;;;;37.63;15.27;;;;;;;14.90;78.37;101401.81;5011958;28;20042;-46
2023/10/23 08:14:04;;;;;;;32.42;14.45;;;;;;;15.16;78.18;101404.53;5011177;28;20038;-45
2023/10/23 08:16:29;;;;;;;33.42;14.52;;;;;;;14.79;78.20;101398.25;5014423;28;20057;-49
2023/10/23 08:18:57;;;;;;;34.38;14.57;;;;;;;15.22;77.45;101403.66;5031428;28;20064;-50
2023/10/23 08:21:22;;;;;;;32.45;14.15;;;;;;;15.40;76.66;101398.44;5031361;28;20040;-51
2023/10/23 08:23:54;;;;;;;33.05;13.48;;;;;;;15.23;77.41;101405.41;5031048;28;20041;-45
2023/10/23 08:26:19;;;;;;;30.50;13.48;;;;;;;15.46;76.90;101397.59;5030166;28;20033;-44
2023/10/23 08:28:45;;;;;;;31.05;12.95;;;;;;;15.51;76.10;101408.97;5014252;28;20399;-49
2023/10/23 08:31:10;;;;;;;26.17;12.50;;;;;;;15.42;76.57;101407.22;5011150;28;20613;-46
2023/10/23 08:33:35;;;;;;;28.13;12.50;;;;;;;15.49;76.15;101405.50;5011606;28;20038;-49
2023/10/23 08:36:00;;;;;;;39.05;12.82;;;;;;;15.29;75.37;101418.56;5011351;28;20084;-45
2023/10/23 08:38:27;;;;;;;26.08;11.98;;;;;;;15.44;76.82;101408.97;5011421;28;20443;-51
2023/10/23 08:40:53;;;;;;;31.80;12.40;;;;;;;15.30;76.68;101408.06;5010668;28;20061;-45
2023/10/23 08:43:18;;;;;;;30.60;12.07;;;;;;;15.23;77.35;101408.03;5011540;28;20065;-48
2023/10/23 08:45:46;;;;;;;24.55;12.68;;;;;;;15.58;76.28;101403.78;5011109;28;20037;-49
2023/10/23 08:48:11;;;;;;;26.85;12.50;;;;;;;15.69;75.89;101403.78;5011508;28;20037;-49
2023/10/23 08:50:37;;;;;;;26.95;12.90;;;;;;;15.67;75.82;101406.44;5012555;28;20022;-49
2023/10/23 08:53:07;;;;;;;28.85;12.43;;;;;;;15.78;75.73;101409.06;5010631;28;20044;-48
2023/10/23 08:55:33;;;;;;;27.77;13.07;;;;;;;15.69;75.92;101414.28;5010711;28;20030;-47
2023/10/23 08:57:59;;;;;;;23.45;12.32;;;;;;;15.41;76.52;101405.47;5011049;28;20033;-51
2023/10/23 09:00:25;;;;;;;23.38;12.02;;;;;;;15.62;75.71;101410.78;5010643;28;20034;-47
2023/10/23 09:02:51;;;;;;;25.52;11.80;;;;;;;15.54;75.58;101411.66;5020137;28;20524;-47
2023/10/23 09:05:17;;;;;;;23.85;12.20;;;;;;;15.80;74.98;101409.91;5030459;28;20450;-48
2023/10/23 09:07:43;;;;;;;25.05;12.73;;;;;;;15.57;75.28;101409.00;5030975;28;20387;-49
2023/10/23 09:10:08;;;;;;;24.48;12.82;;;;;;;15.57;75.56;101416.91;5029943;28;20036;-50
2023/10/23 09:12:35;;;;;;;23.83;12.02;;;;;;;15.39;75.96;101409.81;5026690;28;20698;-45
2023/10/23 09:15:13;;;;;;;27.02;12.07;;;;;;;15.73;75.56;101408.19;5010688;28;20049;-48
2023/10/23 09:17:39;;;;;;;23.20;12.20;;;;;;;15.58;75.95;101405.53;5026245;28;20041;-50
2023/10/23 09:20:19;;;;;;;23.25;12.23;;;;;;;16.00;74.02;101404.66;5029582;28;20033;-45
2023/10/23 09:22:48;;;;;;;21.25;11.52;;;;;;;15.94;74.20;101400.28;5029344;28;20067;-44
2023/10/23 09:25:15;;;;;;;21.98;11.90;;;;;;;16.06;73.82;101402.91;5010400;28;20176;-49
2023/10/23 09:27:41;;;;;;;21.67;11.98;;;;;;;15.88;74.37;101408.16;5010380;28;20042;-48
2023/10/23 09:30:08;;;;;;;19.42;11.27;;;;;;;15.89;74.36;101399.41;5009833;28;20126;-51
2023/10/23 09:32:34;;;;;;;21.60;11.90;;;;;;;15.59;74.81;101402.91;5010301;28;20459;-51
2023/10/23 09:35:00;;;;;;;20.15;11.63;;;;;;;14.94;76.77;101400.09;5009650;28;20045;-49
2023/10/23 09:37:26;;;;;;;20.60;11.65;;;;;;;15.16;76.00;101404.53;5011949;28;20030;-51
2023/10/23 09:39:52;;;;;;;18.25;11.50;;;;;;;15.53;74.81;101396.75;5011546;28;20034;-48
2023/10/23 09:42:18;;;;;;;20.42;10.98;;;;;;;15.13;75.75;101396.63;5011941;28;20543;-46
2023/10/23 09:44:45;;;;;;;20.55;11.85;;;;;;;14.76;77.02;101398.22;5011114;28;20108;-49
2023/10/23 09:47:11;;;;;;;20.98;11.63;;;;;;;14.71;77.26;101406.94;5010183;28;20026;-49
2023/10/23 09:49:40;;;;;;;18.35;10.82;;;;;;;14.73;77.42;101402.59;5010520;28;20029;-48
2023/10/23 09:52:07;;;;;;;19.35;10.95;;;;;;;14.72;76.99;101403.47;5008102;28;20076;-52
2023/10/23 09:54:35;;;;;;;18.42;10.30;;;;;;;15.25;75.10;101404.53;5009844;28;20080;-49
2023/10/23 09:57:03;;;;;;;21.48;11.43;;;;;;;14.94;76.08;101405.34;5009428;28;20037;-45
2023/10/23 09:59:40;;;;;;;20.33;11.20;;;;;;;14.87;75.97;101407.06;5009980;28;20121;-51
2023/10/23 10:02:09;;;;;;;21.95;11.88;;;;;;;15.12;75.34;101404.53;5009769;28;20037;-49
2023/10/23 10:04:57;;;;;;;20.33;11.05;;;;;;;15.63;73.69;101406.41;5009955;28;20038;-48
2023/10/23 10:07:31;;;;;;;21.15;11.77;;;;;;;15.12;75.27;101400.16;5009849;28;20151;-49
2023/10/23 10:09:56;;;;;;;;;;;;;;;15.46;74.08;101402.84;5010032;28;20077;-46
2023/10/23 10:12:23;;;;;;;22.00;11.50;;;;;;;15.51;74.27;101401.09;5010089;28;19917;-51
2023/10/23 10:14:49;;;;;;;22.42;11.23;;;;;;;15.57;74.51;101394.13;5009482;28;20092;-45
2023/10/23 10:17:19;;;;;;;23.05;11.90;;;;;;;15.67;74.17;101398.53;5009514;28;20443;-49
2023/10/23 10:19:45;;;;;;;23.95;12.23;;;;;;;15.23;74.85;101395.78;5009254;28;20042;-49
2023/10/23 10:22:10;;;;;;;24.98;13.00;;;;;;;15.53;74.23;101389.75;5009281;28;20419;-49
2023/10/23 10:24:38;;;;;;;26.50;13.27;;;;;;;15.18;75.54;101387.03;5009365;28;20034;-49
2023/10/23 10:27:04;;;;;;;29.35;13.27;;;;;;;15.69;73.80;101393.25;5009059;28;20046;-48
2023/10/23 10:29:30;;;;;;;26.58;13.23;;;;;;;15.76;73.47;101389.75;5009675;28;20037;-45
2023/10/23 10:32:06;;;;;;;26.75;12.77;;;;;;;16.10;72.31;101388.03;5008806;28;20030;-45
2023/10/23 10:34:37;;;;;;;28.15;13.07;;;;;;;16.04;72.66;101390.66;5009657;28;20096;-46
2023/10/23 10:37:05;;;;;;;29.23;13.77;;;;;;;16.09;72.38;101386.25;5009399;28;20038;-48
2023/10/23 10:39:46;;;;;;;29.15;13.82;;;;;;;16.33;71.69;101378.31;5009603;28;20048;-50
2023/10/23 10:42:16;;;;;;;30.88;14.90;;;;;;;16.07;72.68;101367.84;5009538;28;20037;-51
2023/10/23 10:45:10;;;;;;;33.05;15.38;;;;;;;16.19;72.05;101374.84;5009519;28;20484;-48
2023/10/23 10:47:36;;;;;;;31.25;14.77;;;;;;;16.12;71.65;101366.06;5009590;28;20117;-46
2023/10/23 10:50:03;;;;;;;32.20;15.18;;;;;;;16.42;71.36;101369.50;5009299;28;20034;-46
2023/10/23 10:52:31;;;;;;;31.58;15.10;;;;;;;16.47;71.26;101359.84;5009824;28;20041;-47
2023/10/23 10:55:00;;;;;;;33.53;15.82;;;;;;;16.14;71.72;101358.19;5009140;28;20693;-44
2023/10/23 10:57:26;;;;;;;35.45;16.48;;;;;;;16.46;70.51;101353.75;5010384;28;20034;-45
2023/10/23 10:59:59;;;;;;;31.58;14.85;;;;;;;16.72;69.99;101355.41;5009995;28;20088;-47
2023/10/23 11:02:24;;;;;;;33.50;15.82;;;;;;;16.28;71.42;101345.91;5009446;28;20026;-45
2023/10/23 11:04:50;;;;;;;35.40;16.00;;;;;;;16.63;70.58;101348.44;5009573;28;20076;-52
2023/10/23 11:07:24;;;;;;;38.67;16.77;;;;;;;16.54;70.80;101340.53;5008961;28;20053;-48
2023/10/23 11:09:50;;;;;;;32.63;15.48;;;;;;;16.85;70.27;101336.03;5007935;28;20104;-47
2023/10/23 11:12:19;;;;;;;33.50;15.98;;;;;;;16.81;70.04;101331.69;5008965;28;20061;-46